sensor_id;sensor_type;location;lat;lon;timestamp;P1;durP1;ratioP1;P2;durP2;ratioP2
9657;SDS011;4867;48.112;11.622;2023-09-18T00:01:06;5.97;;;5.47;;
9657;SDS011;4867;48.112;11.622;2023-09-18T00:03:35;5.70;;;5.20;;
9657;SDS011;4867;48.112;11.622;2023-09-18T00:06:03;6.70;;;5.63;;
9657;SDS011;4867;48.112;11.622;2023-09-18T00:08:31;6.30;;;5.70;;
9657;SDS011;4867;48.112;11.622;2023-09-18T00:10:58;7.07;;;5.80;;
9657;SDS011;4867;48.112;11.622;2023-09-18T00:13:27;5.83;;;5.23;;
9657;SDS011;4867;48.112;11.622;2023-09-18T00:15:55;6.27;;;5.70;;
9657;SDS011;4867;48.112;11.622;2023-09-18T00:18:23;6.63;;;5.90;;
9657;SDS011;4867;48.112;11.622;2023-09-18T00:20:50;5.73;;;5.33;;
9657;SDS011;4867;48.112;11.622;2023-09-18T00:23:18;5.57;;;5.07;;
9657;SDS011;4867;48.112;11.622;2023-09-18T00:25:46;5.80;;;5.30;;
9657;SDS011;4867;48.112;11.622;2023-09-18T00:28:13;6.13;;;5.53;;
9657;SDS011;4867;48.112;11.622;2023-09-18T00:30:46;5.80;;;5.30;;
9657;SDS011;4867;48.112;11.622;2023-09-18T00:33:15;6.40;;;5.20;;
9657;SDS011;4867;48.112;11.622;2023-09-18T00:35:49;5.27;;;4.87;;
9657;SDS011;4867;48.112;11.622;2023-09-18T00:38:17;5.80;;;4.87;;
9657;SDS011;4867;48.112;11.622;2023-09-18T00:40:46;5.10;;;4.70;;
9657;SDS011;4867;48.112;11.622;2023-09-18T00:43:13;5.53;;;4.90;;
9657;SDS011;4867;48.112;11.622;2023-09-18T00:45:45;5.67;;;4.77;;
9657;SDS011;4867;48.112;11.622;2023-09-18T00:48:14;6.40;;;4.17;;
9657;SDS011;4867;48.112;11.622;2023-09-18T00:50:43;4.90;;;4.50;;
9657;SDS011;4867;48.112;11.622;2023-09-18T00:53:13;5.50;;;5.00;;
9657;SDS011;4867;48.112;11.622;2023-09-18T00:55:43;5.60;;;5.00;;
9657;SDS011;4867;48.112;11.622;2023-09-18T00:58:11;7.17;;;4.77;;
9657;SDS011;4867;48.112;11.622;2023-09-18T01:00:38;5.17;;;4.77;;
9657;SDS011;4867;48.112;11.622;2023-09-18T01:03:07;6.13;;;4.90;;
9657;SDS011;4867;48.112;11.622;2023-09-18T01:05:34;4.97;;;4.53;;
9657;SDS011;4867;48.112;11.622;2023-09-18T01:08:03;5.53;;;4.90;;
9657;SDS011;4867;48.112;11.622;2023-09-18T01:10:36;5.87;;;4.50;;
9657;SDS011;4867;48.112;11.622;2023-09-18T01:13:19;5.00;;;4.50;;
9657;SDS011;4867;48.112;11.622;2023-09-18T01:16:02;5.97;;;5.00;;
9657;SDS011;4867;48.112;11.622;2023-09-18T01:18:49;4.93;;;4.37;;
9657;SDS011;4867;48.112;11.622;2023-09-18T01:21:20;4.80;;;4.30;;
9657;SDS011;4867;48.112;11.622;2023-09-18T01:23:48;6.77;;;4.50;;
9657;SDS011;4867;48.112;11.622;2023-09-18T01:26:16;6.70;;;4.73;;
9657;SDS011;4867;48.112;11.622;2023-09-18T01:28:43;6.13;;;4.60;;
9657;SDS011;4867;48.112;11.622;2023-09-18T01:31:10;6.00;;;4.40;;
9657;SDS011;4867;48.112;11.622;2023-09-18T01:33:38;7.30;;;4.53;;
9657;SDS011;4867;48.112;11.622;2023-09-18T01:36:09;6.17;;;4.50;;
9657;SDS011;4867;48.112;11.622;2023-09-18T01:38:37;4.97;;;4.23;;
9657;SDS011;4867;48.112;11.622;2023-09-18T01:41:05;4.70;;;4.23;;
9657;SDS011;4867;48.112;11.622;2023-09-18T01:43:32;4.60;;;4.20;;
9657;SDS011;4867;48.112;11.622;2023-09-18T01:45:59;5.70;;;4.43;;
9657;SDS011;4867;48.112;11.622;2023-09-18T01:48:28;5.73;;;4.00;;
9657;SDS011;4867;48.112;11.622;2023-09-18T01:50:55;4.33;;;4.03;;
9657;SDS011;4867;48.112;11.622;2023-09-18T01:53:23;5.70;;;3.87;;
9657;SDS011;4867;48.112;11.622;2023-09-18T01:55:51;4.53;;;4.03;;
9657;SDS011;4867;48.112;11.622;2023-09-18T01:58:18;5.83;;;4.67;;
9657;SDS011;4867;48.112;11.622;2023-09-18T02:00:46;6.63;;;4.53;;
9657;SDS011;4867;48.112;11.622;2023-09-18T02:03:14;6.17;;;4.40;;
9657;SDS011;4867;48.112;11.622;2023-09-18T02:06:00;7.43;;;4.60;;
9657;SDS011;4867;48.112;11.622;2023-09-18T02:08:28;5.80;;;4.20;;
9657;SDS011;4867;48.112;11.622;2023-09-18T02:10:55;6.30;;;3.77;;
9657;SDS011;4867;48.112;11.622;2023-09-18T02:13:23;4.37;;;3.97;;
9657;SDS011;4867;48.112;11.622;2023-09-18T02:15:50;4.33;;;3.93;;
9657;SDS011;4867;48.112;11.622;2023-09-18T02:18:18;4.50;;;4.00;;
9657;SDS011;4867;48.112;11.622;2023-09-18T02:20:45;5.43;;;3.90;;
9657;SDS011;4867;48.112;11.622;2023-09-18T02:23:15;6.57;;;3.90;;
9657;SDS011;4867;48.112;11.622;2023-09-18T02:25:43;4.67;;;4.07;;
9657;SDS011;4867;48.112;11.622;2023-09-18T02:28:10;5.73;;;3.80;;
9657;SDS011;4867;48.112;11.622;2023-09-18T02:30:37;6.70;;;3.97;;
9657;SDS011;4867;48.112;11.622;2023-09-18T02:33:04;6.10;;;3.73;;
9657;SDS011;4867;48.112;11.622;2023-09-18T02:35:34;5.13;;;3.73;;
9657;SDS011;4867;48.112;11.622;2023-09-18T02:38:01;5.17;;;3.70;;
9657;SDS011;4867;48.112;11.622;2023-09-18T02:40:30;8.07;;;4.20;;
9657;SDS011;4867;48.112;11.622;2023-09-18T02:42:57;5.20;;;4.10;;
9657;SDS011;4867;48.112;11.622;2023-09-18T02:45:25;6.30;;;3.77;;
9657;SDS011;4867;48.112;11.622;2023-09-18T02:47:52;5.93;;;4.13;;
9657;SDS011;4867;48.112;11.622;2023-09-18T02:50:19;5.50;;;3.70;;
9657;SDS011;4867;48.112;11.622;2023-09-18T02:52:47;4.17;;;3.77;;
9657;SDS011;4867;48.112;11.622;2023-09-18T02:55:14;6.10;;;4.10;;
9657;SDS011;4867;48.112;11.622;2023-09-18T02:57:42;7.13;;;3.60;;
9657;SDS011;4867;48.112;11.622;2023-09-18T03:00:09;6.70;;;4.10;;
9657;SDS011;4867;48.112;11.622;2023-09-18T03:02:37;6.30;;;3.87;;
9657;SDS011;4867;48.112;11.622;2023-09-18T03:05:04;5.33;;;3.97;;
9657;SDS011;4867;48.112;11.622;2023-09-18T03:07:32;6.10;;;3.97;;
9657;SDS011;4867;48.112;11.622;2023-09-18T03:10:00;5.70;;;3.40;;
9657;SDS011;4867;48.112;11.622;2023-09-18T03:12:28;4.53;;;3.90;;
9657;SDS011;4867;48.112;11.622;2023-09-18T03:14:55;4.53;;;3.60;;
9657;SDS011;4867;48.112;11.622;2023-09-18T03:17:22;4.00;;;3.60;;
9657;SDS011;4867;48.112;11.622;2023-09-18T03:19:50;4.53;;;3.40;;
9657;SDS011;4867;48.112;11.622;2023-09-18T03:22:17;5.57;;;3.90;;
9657;SDS011;4867;48.112;11.622;2023-09-18T03:24:46;4.73;;;3.53;;
9657;SDS011;4867;48.112;11.622;2023-09-18T03:27:13;5.93;;;4.10;;
9657;SDS011;4867;48.112;11.622;2023-09-18T03:29:41;5.27;;;3.80;;
9657;SDS011;4867;48.112;11.622;2023-09-18T03:32:08;5.00;;;3.70;;
9657;SDS011;4867;48.112;11.622;2023-09-18T03:34:39;4.83;;;3.80;;
9657;SDS011;4867;48.112;11.622;2023-09-18T03:37:09;4.17;;;3.77;;
9657;SDS011;4867;48.112;11.622;2023-09-18T03:39:37;5.73;;;3.83;;
9657;SDS011;4867;48.112;11.622;2023-09-18T03:42:04;5.07;;;4.13;;
9657;SDS011;4867;48.112;11.622;2023-09-18T03:44:31;3.83;;;3.53;;
9657;SDS011;4867;48.112;11.622;2023-09-18T03:46:59;4.60;;;3.63;;
9657;SDS011;4867;48.112;11.622;2023-09-18T03:49:27;4.73;;;3.70;;
9657;SDS011;4867;48.112;11.622;2023-09-18T03:51:55;4.93;;;3.80;;
9657;SDS011;4867;48.112;11.622;2023-09-18T03:54:22;5.13;;;4.00;;
9657;SDS011;4867;48.112;11.622;2023-09-18T03:56:49;5.73;;;4.00;;
9657;SDS011;4867;48.112;11.622;2023-09-18T03:59:17;6.53;;;3.70;;
9657;SDS011;4867;48.112;11.622;2023-09-18T04:01:44;6.13;;;3.90;;
9657;SDS011;4867;48.112;11.622;2023-09-18T04:04:13;5.30;;;3.93;;
9657;SDS011;4867;48.112;11.622;2023-09-18T04:06:41;5.63;;;3.90;;
9657;SDS011;4867;48.112;11.622;2023-09-18T04:09:10;5.73;;;3.60;;
9657;SDS011;4867;48.112;11.622;2023-09-18T04:11:38;4.73;;;3.70;;
9657;SDS011;4867;48.112;11.622;2023-09-18T04:14:05;5.00;;;4.10;;
9657;SDS011;4867;48.112;11.622;2023-09-18T04:16:32;5.47;;;4.00;;
9657;SDS011;4867;48.112;11.622;2023-09-18T04:19:02;4.53;;;4.13;;
9657;SDS011;4867;48.112;11.622;2023-09-18T04:21:30;6.17;;;3.97;;
9657;SDS011;4867;48.112;11.622;2023-09-18T04:23:57;5.97;;;3.90;;
9657;SDS011;4867;48.112;11.622;2023-09-18T04:26:25;8.30;;;4.10;;
9657;SDS011;4867;48.112;11.622;2023-09-18T04:28:57;4.33;;;3.83;;
9657;SDS011;4867;48.112;11.622;2023-09-18T04:31:26;6.47;;;4.27;;
9657;SDS011;4867;48.112;11.622;2023-09-18T04:33:55;4.93;;;4.47;;
9657;SDS011;4867;48.112;11.622;2023-09-18T04:36:23;5.60;;;4.20;;
9657;SDS011;4867;48.112;11.622;2023-09-18T04:38:51;5.77;;;4.20;;
9657;SDS011;4867;48.112;11.622;2023-09-18T04:41:19;6.67;;;4.33;;
9657;SDS011;4867;48.112;11.622;2023-09-18T04:43:46;4.00;;;3.53;;
9657;SDS011;4867;48.112;11.622;2023-09-18T04:46:14;5.10;;;4.30;;
9657;SDS011;4867;48.112;11.622;2023-09-18T04:48:42;5.30;;;3.93;;
9657;SDS011;4867;48.112;11.622;2023-09-18T04:51:10;4.50;;;4.10;;
9657;SDS011;4867;48.112;11.622;2023-09-18T04:53:39;4.77;;;3.90;;
9657;SDS011;4867;48.112;11.622;2023-09-18T04:56:06;4.60;;;4.10;;
9657;SDS011;4867;48.112;11.622;2023-09-18T04:58:34;7.73;;;3.70;;
9657;SDS011;4867;48.112;11.622;2023-09-18T05:01:03;4.27;;;3.83;;
9657;SDS011;4867;48.112;11.622;2023-09-18T05:03:37;4.27;;;3.87;;
9657;SDS011;4867;48.112;11.622;2023-09-18T05:06:09;5.27;;;3.90;;
9657;SDS011;4867;48.112;11.622;2023-09-18T05:08:36;8.30;;;4.10;;
9657;SDS011;4867;48.112;11.622;2023-09-18T05:11:03;8.10;;;4.37;;
9657;SDS011;4867;48.112;11.622;2023-09-18T05:13:31;6.27;;;4.17;;
9657;SDS011;4867;48.112;11.622;2023-09-18T05:15:58;7.57;;;3.90;;
9657;SDS011;4867;48.112;11.622;2023-09-18T05:18:27;4.63;;;4.10;;
9657;SDS011;4867;48.112;11.622;2023-09-18T05:20:55;6.80;;;4.40;;
9657;SDS011;4867;48.112;11.622;2023-09-18T05:23:22;6.27;;;4.47;;
9657;SDS011;4867;48.112;11.622;2023-09-18T05:25:50;6.83;;;4.27;;
9657;SDS011;4867;48.112;11.622;2023-09-18T05:28:17;8.03;;;4.23;;
9657;SDS011;4867;48.112;11.622;2023-09-18T05:30:45;6.03;;;3.90;;
9657;SDS011;4867;48.112;11.622;2023-09-18T05:33:12;6.53;;;3.90;;
9657;SDS011;4867;48.112;11.622;2023-09-18T05:35:41;7.90;;;4.20;;
9657;SDS011;4867;48.112;11.622;2023-09-18T05:38:10;9.20;;;5.13;;
9657;SDS011;4867;48.112;11.622;2023-09-18T05:40:41;6.27;;;5.03;;
9657;SDS011;4867;48.112;11.622;2023-09-18T05:43:08;6.70;;;4.70;;
9657;SDS011;4867;48.112;11.622;2023-09-18T05:45:36;7.33;;;3.97;;
9657;SDS011;4867;48.112;11.622;2023-09-18T05:48:04;7.23;;;4.20;;
9657;SDS011;4867;48.112;11.622;2023-09-18T05:50:33;6.30;;;4.50;;
9657;SDS011;4867;48.112;11.622;2023-09-18T05:53:02;7.53;;;4.53;;
9657;SDS011;4867;48.112;11.622;2023-09-18T05:55:31;6.67;;;4.33;;
9657;SDS011;4867;48.112;11.622;2023-09-18T05:58:00;7.67;;;4.40;;
9657;SDS011;4867;48.112;11.622;2023-09-18T06:00:30;5.93;;;4.40;;
9657;SDS011;4867;48.112;11.622;2023-09-18T06:02:58;7.37;;;4.47;;
9657;SDS011;4867;48.112;11.622;2023-09-18T06:05:26;7.97;;;4.60;;
9657;SDS011;4867;48.112;11.622;2023-09-18T06:07:53;8.13;;;4.70;;
9657;SDS011;4867;48.112;11.622;2023-09-18T06:10:20;6.57;;;4.67;;
9657;SDS011;4867;48.112;11.622;2023-09-18T06:12:47;8.00;;;4.67;;
9657;SDS011;4867;48.112;11.622;2023-09-18T06:15:15;7.13;;;4.73;;
9657;SDS011;4867;48.112;11.622;2023-09-18T06:17:43;8.20;;;4.70;;
9657;SDS011;4867;48.112;11.622;2023-09-18T06:20:11;6.70;;;4.50;;
9657;SDS011;4867;48.112;11.622;2023-09-18T06:22:43;13.50;;;4.40;;
9657;SDS011;4867;48.112;11.622;2023-09-18T06:25:10;8.60;;;4.53;;
9657;SDS011;4867;48.112;11.622;2023-09-18T06:27:37;7.47;;;4.83;;
9657;SDS011;4867;48.112;11.622;2023-09-18T06:30:05;12.27;;;4.60;;
9657;SDS011;4867;48.112;11.622;2023-09-18T06:32:33;10.83;;;4.57;;
9657;SDS011;4867;48.112;11.622;2023-09-18T06:35:01;8.00;;;4.70;;
9657;SDS011;4867;48.112;11.622;2023-09-18T06:37:28;12.93;;;4.70;;
9657;SDS011;4867;48.112;11.622;2023-09-18T06:39:56;9.97;;;4.70;;
9657;SDS011;4867;48.112;11.622;2023-09-18T06:42:26;7.87;;;4.60;;
9657;SDS011;4867;48.112;11.622;2023-09-18T06:44:57;13.90;;;4.70;;
9657;SDS011;4867;48.112;11.622;2023-09-18T06:47:25;7.17;;;4.50;;
9657;SDS011;4867;48.112;11.622;2023-09-18T06:49:52;9.97;;;4.73;;
9657;SDS011;4867;48.112;11.622;2023-09-18T06:52:19;8.93;;;4.50;;
9657;SDS011;4867;48.112;11.622;2023-09-18T06:54:47;8.10;;;4.50;;
9657;SDS011;4867;48.112;11.622;2023-09-18T06:57:14;8.07;;;4.63;;
9657;SDS011;4867;48.112;11.622;2023-09-18T06:59:41;9.30;;;4.40;;
9657;SDS011;4867;48.112;11.622;2023-09-18T07:02:09;6.97;;;4.17;;
9657;SDS011;4867;48.112;11.622;2023-09-18T07:04:37;9.80;;;4.73;;
9657;SDS011;4867;48.112;11.622;2023-09-18T07:07:12;10.37;;;5.23;;
9657;SDS011;4867;48.112;11.622;2023-09-18T07:09:40;8.57;;;4.67;;
9657;SDS011;4867;48.112;11.622;2023-09-18T07:12:28;11.07;;;5.07;;
9657;SDS011;4867;48.112;11.622;2023-09-18T07:14:55;9.13;;;5.00;;
9657;SDS011;4867;48.112;11.622;2023-09-18T07:17:23;13.03;;;5.03;;
9657;SDS011;4867;48.112;11.622;2023-09-18T07:19:50;8.53;;;4.93;;
9657;SDS011;4867;48.112;11.622;2023-09-18T07:22:17;8.90;;;5.10;;
9657;SDS011;4867;48.112;11.622;2023-09-18T07:24:44;10.93;;;5.37;;
9657;SDS011;4867;48.112;11.622;2023-09-18T07:27:12;11.10;;;5.20;;
9657;SDS011;4867;48.112;11.622;2023-09-18T07:29:40;9.43;;;5.70;;
9657;SDS011;4867;48.112;11.622;2023-09-18T07:32:08;9.73;;;4.53;;
9657;SDS011;4867;48.112;11.622;2023-09-18T07:34:36;11.77;;;4.87;;
9657;SDS011;4867;48.112;11.622;2023-09-18T07:37:03;11.17;;;4.80;;
9657;SDS011;4867;48.112;11.622;2023-09-18T07:39:31;9.60;;;4.83;;
9657;SDS011;4867;48.112;11.622;2023-09-18T07:41:59;10.57;;;4.70;;
9657;SDS011;4867;48.112;11.622;2023-09-18T07:44:26;10.27;;;4.83;;
9657;SDS011;4867;48.112;11.622;2023-09-18T07:46:54;12.50;;;5.00;;
9657;SDS011;4867;48.112;11.622;2023-09-18T07:49:21;7.30;;;5.07;;
9657;SDS011;4867;48.112;11.622;2023-09-18T07:51:48;7.67;;;4.63;;
9657;SDS011;4867;48.112;11.622;2023-09-18T07:54:15;12.30;;;4.60;;
9657;SDS011;4867;48.112;11.622;2023-09-18T07:56:43;9.07;;;4.87;;
9657;SDS011;4867;48.112;11.622;2023-09-18T07:59:10;7.77;;;4.70;;
9657;SDS011;4867;48.112;11.622;2023-09-18T08:01:37;6.60;;;4.70;;
9657;SDS011;4867;48.112;11.622;2023-09-18T08:04:05;9.57;;;4.43;;
9657;SDS011;4867;48.112;11.622;2023-09-18T08:06:32;6.23;;;4.53;;
9657;SDS011;4867;48.112;11.622;2023-09-18T08:09:00;6.00;;;4.57;;
9657;SDS011;4867;48.112;11.622;2023-09-18T08:11:27;6.40;;;4.23;;
9657;SDS011;4867;48.112;11.622;2023-09-18T08:13:55;5.60;;;4.73;;
9657;SDS011;4867;48.112;11.622;2023-09-18T08:16:22;6.77;;;4.47;;
9657;SDS011;4867;48.112;11.622;2023-09-18T08:18:49;7.23;;;5.20;;
9657;SDS011;4867;48.112;11.622;2023-09-18T08:21:17;6.73;;;4.70;;
9657;SDS011;4867;48.112;11.622;2023-09-18T08:23:45;5.50;;;4.90;;
9657;SDS011;4867;48.112;11.622;2023-09-18T08:26:12;6.80;;;4.73;;
9657;SDS011;4867;48.112;11.622;2023-09-18T08:28:40;7.37;;;4.70;;
9657;SDS011;4867;48.112;11.622;2023-09-18T08:31:10;7.20;;;5.00;;
9657;SDS011;4867;48.112;11.622;2023-09-18T08:33:38;8.23;;;5.07;;
9657;SDS011;4867;48.112;11.622;2023-09-18T08:36:05;8.50;;;5.20;;
9657;SDS011;4867;48.112;11.622;2023-09-18T08:38:32;5.37;;;4.87;;
9657;SDS011;4867;48.112;11.622;2023-09-18T08:41:00;8.20;;;5.13;;
9657;SDS011;4867;48.112;11.622;2023-09-18T08:43:27;7.53;;;5.10;;
9657;SDS011;4867;48.112;11.622;2023-09-18T08:45:58;5.32;;;4.70;;
9657;SDS011;4867;48.112;11.622;2023-09-18T08:48:28;6.73;;;5.00;;
9657;SDS011;4867;48.112;11.622;2023-09-18T08:51:05;7.07;;;4.53;;
9657;SDS011;4867;48.112;11.622;2023-09-18T08:53:33;8.03;;;5.07;;
9657;SDS011;4867;48.112;11.622;2023-09-18T08:56:04;7.10;;;5.10;;
9657;SDS011;4867;48.112;11.622;2023-09-18T08:58:36;11.17;;;4.97;;
9657;SDS011;4867;48.112;11.622;2023-09-18T09:01:06;9.23;;;5.13;;
9657;SDS011;4867;48.112;11.622;2023-09-18T09:03:37;7.47;;;5.30;;
9657;SDS011;4867;48.112;11.622;2023-09-18T09:06:09;12.87;;;5.17;;
9657;SDS011;4867;48.112;11.622;2023-09-18T09:08:36;9.05;;;4.88;;
9657;SDS011;4867;48.112;11.622;2023-09-18T09:11:04;5.40;;;4.60;;
9657;SDS011;4867;48.112;11.622;2023-09-18T09:13:32;8.65;;;5.13;;
9657;SDS011;4867;48.112;11.622;2023-09-18T09:16:12;7.13;;;4.83;;
9657;SDS011;4867;48.112;11.622;2023-09-18T09:18:47;8.37;;;5.30;;
9657;SDS011;4867;48.112;11.622;2023-09-18T09:21:17;7.13;;;5.00;;
9657;SDS011;4867;48.112;11.622;2023-09-18T09:23:53;7.70;;;5.00;;
9657;SDS011;4867;48.112;11.622;2023-09-18T09:26:21;7.87;;;5.00;;
9657;SDS011;4867;48.112;11.622;2023-09-18T09:28:50;6.10;;;4.90;;
9657;SDS011;4867;48.112;11.622;2023-09-18T09:31:28;10.97;;;5.17;;
9657;SDS011;4867;48.112;11.622;2023-09-18T09:33:57;11.43;;;4.90;;
9657;SDS011;4867;48.112;11.622;2023-09-18T09:36:27;9.00;;;5.17;;
9657;SDS011;4867;48.112;11.622;2023-09-18T09:38:55;9.03;;;4.67;;
9657;SDS011;4867;48.112;11.622;2023-09-18T09:41:26;9.55;;;4.82;;
9657;SDS011;4867;48.112;11.622;2023-09-18T09:43:57;9.67;;;4.67;;
9657;SDS011;4867;48.112;11.622;2023-09-18T09:46:25;11.50;;;4.78;;
9657;SDS011;4867;48.112;11.622;2023-09-18T09:49:05;12.02;;;4.95;;
9657;SDS011;4867;48.112;11.622;2023-09-18T09:51:33;12.38;;;5.40;;
9657;SDS011;4867;48.112;11.622;2023-09-18T09:54:03;11.65;;;5.03;;
9657;SDS011;4867;48.112;11.622;2023-09-18T09:59:12;10.15;;;4.93;;
9657;SDS011;4867;48.112;11.622;2023-09-18T10:01:41;10.00;;;4.82;;
9657;SDS011;4867;48.112;11.622;2023-09-18T10:04:15;9.68;;;4.65;;
9657;SDS011;4867;48.112;11.622;2023-09-18T10:06:45;9.35;;;4.72;;
9657;SDS011;4867;48.112;11.622;2023-09-18T10:09:22;10.63;;;5.00;;
9657;SDS011;4867;48.112;11.622;2023-09-18T10:11:51;8.57;;;4.45;;
9657;SDS011;4867;48.112;11.622;2023-09-18T10:14:20;11.23;;;5.47;;
9657;SDS011;4867;48.112;11.622;2023-09-18T10:16:53;11.98;;;4.72;;
9657;SDS011;4867;48.112;11.622;2023-09-18T10:22:14;10.85;;;4.50;;
9657;SDS011;4867;48.112;11.622;2023-09-18T10:25:03;12.07;;;4.57;;
9657;SDS011;4867;48.112;11.622;2023-09-18T10:27:37;9.93;;;4.90;;
9657;SDS011;4867;48.112;11.622;2023-09-18T10:30:07;13.20;;;4.85;;
9657;SDS011;4867;48.112;11.622;2023-09-18T10:32:38;10.48;;;5.07;;
9657;SDS011;4867;48.112;11.622;2023-09-18T10:35:07;8.50;;;4.78;;
9657;SDS011;4867;48.112;11.622;2023-09-18T10:37:35;7.00;;;4.45;;
9657;SDS011;4867;48.112;11.622;2023-09-18T10:40:07;10.68;;;4.03;;
9657;SDS011;4867;48.112;11.622;2023-09-18T10:42:39;6.88;;;4.28;;
9657;SDS011;4867;48.112;11.622;2023-09-18T10:45:09;9.68;;;4.35;;
9657;SDS011;4867;48.112;11.622;2023-09-18T10:47:38;9.32;;;4.30;;
9657;SDS011;4867;48.112;11.622;2023-09-18T10:50:08;12.00;;;4.15;;
9657;SDS011;4867;48.112;11.622;2023-09-18T10:52:38;11.45;;;4.10;;
9657;SDS011;4867;48.112;11.622;2023-09-18T10:55:11;9.95;;;4.57;;
9657;SDS011;4867;48.112;11.622;2023-09-18T10:57:53;12.77;;;4.30;;
9657;SDS011;4867;48.112;11.622;2023-09-18T11:00:24;11.05;;;4.60;;
9657;SDS011;4867;48.112;11.622;2023-09-18T11:02:52;12.15;;;4.53;;
9657;SDS011;4867;48.112;11.622;2023-09-18T11:05:28;8.00;;;4.40;;
9657;SDS011;4867;48.112;11.622;2023-09-18T11:11:03;13.63;;;4.72;;
9657;SDS011;4867;48.112;11.622;2023-09-18T11:13:40;11.35;;;5.20;;
9657;SDS011;4867;48.112;11.622;2023-09-18T11:21:29;12.25;;;4.90;;
9657;SDS011;4867;48.112;11.622;2023-09-18T11:23:58;12.98;;;5.10;;
9657;SDS011;4867;48.112;11.622;2023-09-18T11:26:31;14.98;;;5.25;;
9657;SDS011;4867;48.112;11.622;2023-09-18T11:29:07;12.60;;;5.20;;
9657;SDS011;4867;48.112;11.622;2023-09-18T11:31:46;11.82;;;5.32;;
9657;SDS011;4867;48.112;11.622;2023-09-18T11:36:55;12.70;;;6.10;;
9657;SDS011;4867;48.112;11.622;2023-09-18T11:39:36;14.82;;;6.30;;
9657;SDS011;4867;48.112;11.622;2023-09-18T11:42:12;11.48;;;5.68;;
9657;SDS011;4867;48.112;11.622;2023-09-18T11:44:40;9.35;;;4.72;;
9657;SDS011;4867;48.112;11.622;2023-09-18T11:47:09;11.35;;;4.35;;
9657;SDS011;4867;48.112;11.622;2023-09-18T11:52:20;8.63;;;3.30;;
9657;SDS011;4867;48.112;11.622;2023-09-18T11:54:48;10.13;;;3.50;;
9657;SDS011;4867;48.112;11.622;2023-09-18T11:57:18;9.47;;;3.13;;
9657;SDS011;4867;48.112;11.622;2023-09-18T11:59:48;5.83;;;2.83;;
9657;SDS011;4867;48.112;11.622;2023-09-18T12:04:55;5.97;;;2.87;;
9657;SDS011;4867;48.112;11.622;2023-09-18T12:07:23;8.73;;;3.70;;
9657;SDS011;4867;48.112;11.622;2023-09-18T12:09:51;7.23;;;3.07;;
9657;SDS011;4867;48.112;11.622;2023-09-18T12:12:21;6.87;;;2.90;;
9657;SDS011;4867;48.112;11.622;2023-09-18T12:14:48;5.83;;;2.53;;
9657;SDS011;4867;48.112;11.622;2023-09-18T12:17:16;5.53;;;2.80;;
9657;SDS011;4867;48.112;11.622;2023-09-18T12:19:50;7.07;;;2.73;;
9657;SDS011;4867;48.112;11.622;2023-09-18T12:22:27;9.63;;;2.70;;
9657;SDS011;4867;48.112;11.622;2023-09-18T12:25:11;4.60;;;2.70;;
9657;SDS011;4867;48.112;11.622;2023-09-18T12:27:42;3.87;;;2.50;;
9657;SDS011;4867;48.112;11.622;2023-09-18T12:30:10;5.73;;;2.43;;
9657;SDS011;4867;48.112;11.622;2023-09-18T12:32:39;6.07;;;2.63;;
9657;SDS011;4867;48.112;11.622;2023-09-18T12:35:07;2.77;;;2.50;;
9657;SDS011;4867;48.112;11.622;2023-09-18T12:37:35;7.33;;;2.67;;
9657;SDS011;4867;48.112;11.622;2023-09-18T12:40:06;6.53;;;2.60;;
9657;SDS011;4867;48.112;11.622;2023-09-18T12:42:49;5.37;;;2.37;;
9657;SDS011;4867;48.112;11.622;2023-09-18T12:45:17;4.20;;;2.30;;
9657;SDS011;4867;48.112;11.622;2023-09-18T12:47:45;6.33;;;2.60;;
9657;SDS011;4867;48.112;11.622;2023-09-18T12:50:13;3.63;;;2.10;;
9657;SDS011;4867;48.112;11.622;2023-09-18T12:52:40;5.07;;;2.33;;
9657;SDS011;4867;48.112;11.622;2023-09-18T12:55:08;3.77;;;1.90;;
9657;SDS011;4867;48.112;11.622;2023-09-18T12:57:46;7.07;;;2.60;;
9657;SDS011;4867;48.112;11.622;2023-09-18T13:00:17;4.83;;;2.27;;
9657;SDS011;4867;48.112;11.622;2023-09-18T13:02:49;8.40;;;6.80;;
9657;SDS011;4867;48.112;11.622;2023-09-18T13:05:25;4.10;;;2.10;;
9657;SDS011;4867;48.112;11.622;2023-09-18T13:07:53;6.13;;;3.90;;
9657;SDS011;4867;48.112;11.622;2023-09-18T13:10:22;4.27;;;2.00;;
9657;SDS011;4867;48.112;11.622;2023-09-18T13:12:54;5.90;;;3.00;;
9657;SDS011;4867;48.112;11.622;2023-09-18T13:15:29;4.97;;;2.30;;
9657;SDS011;4867;48.112;11.622;2023-09-18T13:17:58;5.70;;;2.73;;
9657;SDS011;4867;48.112;11.622;2023-09-18T13:20:31;3.47;;;2.20;;
9657;SDS011;4867;48.112;11.622;2023-09-18T13:22:59;4.20;;;2.40;;
9657;SDS011;4867;48.112;11.622;2023-09-18T13:25:37;4.70;;;2.17;;
9657;SDS011;4867;48.112;11.622;2023-09-18T13:28:07;4.73;;;2.40;;
9657;SDS011;4867;48.112;11.622;2023-09-18T13:30:36;4.67;;;2.30;;
9657;SDS011;4867;48.112;11.622;2023-09-18T13:33:10;3.13;;;2.10;;
9657;SDS011;4867;48.112;11.622;2023-09-18T13:35:40;3.20;;;2.00;;
9657;SDS011;4867;48.112;11.622;2023-09-18T13:38:08;3.80;;;2.10;;
9657;SDS011;4867;48.112;11.622;2023-09-18T13:40:38;3.57;;;2.20;;
9657;SDS011;4867;48.112;11.622;2023-09-18T13:43:08;5.77;;;2.27;;
9657;SDS011;4867;48.112;11.622;2023-09-18T13:45:36;3.73;;;2.00;;
9657;SDS011;4867;48.112;11.622;2023-09-18T13:48:04;3.27;;;1.90;;
9657;SDS011;4867;48.112;11.622;2023-09-18T13:50:33;2.20;;;1.83;;
9657;SDS011;4867;48.112;11.622;2023-09-18T13:53:02;3.37;;;1.90;;
9657;SDS011;4867;48.112;11.622;2023-09-18T13:55:33;2.83;;;1.90;;
9657;SDS011;4867;48.112;11.622;2023-09-18T13:58:01;3.37;;;2.00;;
9657;SDS011;4867;48.112;11.622;2023-09-18T14:00:32;3.33;;;1.70;;
9657;SDS011;4867;48.112;11.622;2023-09-18T14:03:00;5.70;;;2.30;;
9657;SDS011;4867;48.112;11.622;2023-09-18T14:05:27;3.60;;;2.07;;
9657;SDS011;4867;48.112;11.622;2023-09-18T14:07:57;1.97;;;1.70;;
9657;SDS011;4867;48.112;11.622;2023-09-18T14:10:27;2.70;;;1.87;;
9657;SDS011;4867;48.112;11.622;2023-09-18T14:12:55;4.93;;;2.20;;
9657;SDS011;4867;48.112;11.622;2023-09-18T14:15:24;4.37;;;2.40;;
9657;SDS011;4867;48.112;11.622;2023-09-18T14:17:51;2.43;;;1.70;;
9657;SDS011;4867;48.112;11.622;2023-09-18T14:20:19;2.63;;;1.90;;
9657;SDS011;4867;48.112;11.622;2023-09-18T14:22:47;3.70;;;1.97;;
9657;SDS011;4867;48.112;11.622;2023-09-18T14:25:17;4.07;;;1.70;;
9657;SDS011;4867;48.112;11.622;2023-09-18T14:27:47;3.43;;;1.80;;
9657;SDS011;4867;48.112;11.622;2023-09-18T14:30:15;2.93;;;2.10;;
9657;SDS011;4867;48.112;11.622;2023-09-18T14:32:42;2.77;;;1.70;;
9657;SDS011;4867;48.112;11.622;2023-09-18T14:35:10;4.17;;;2.00;;
9657;SDS011;4867;48.112;11.622;2023-09-18T14:37:37;4.07;;;1.70;;
9657;SDS011;4867;48.112;11.622;2023-09-18T14:40:05;3.47;;;1.80;;
9657;SDS011;4867;48.112;11.622;2023-09-18T14:42:37;2.77;;;1.80;;
9657;SDS011;4867;48.112;11.622;2023-09-18T14:45:04;2.20;;;1.60;;
9657;SDS011;4867;48.112;11.622;2023-09-18T14:47:32;3.33;;;1.80;;
9657;SDS011;4867;48.112;11.622;2023-09-18T14:50:00;2.90;;;1.80;;
9657;SDS011;4867;48.112;11.622;2023-09-18T14:52:28;2.90;;;2.00;;
9657;SDS011;4867;48.112;11.622;2023-09-18T14:54:56;2.80;;;1.80;;
9657;SDS011;4867;48.112;11.622;2023-09-18T14:57:23;3.70;;;2.00;;
9657;SDS011;4867;48.112;11.622;2023-09-18T14:59:51;2.40;;;1.90;;
9657;SDS011;4867;48.112;11.622;2023-09-18T15:02:18;2.27;;;1.77;;
9657;SDS011;4867;48.112;11.622;2023-09-18T15:04:46;2.40;;;1.90;;
9657;SDS011;4867;48.112;11.622;2023-09-18T15:07:14;3.20;;;1.77;;
9657;SDS011;4867;48.112;11.622;2023-09-18T15:09:41;2.80;;;1.63;;
9657;SDS011;4867;48.112;11.622;2023-09-18T15:12:08;2.93;;;1.67;;
9657;SDS011;4867;48.112;11.622;2023-09-18T15:14:38;2.37;;;1.50;;
9657;SDS011;4867;48.112;11.622;2023-09-18T15:17:05;2.53;;;1.70;;
9657;SDS011;4867;48.112;11.622;2023-09-18T15:19:34;3.20;;;1.53;;
9657;SDS011;4867;48.112;11.622;2023-09-18T15:22:01;1.73;;;1.50;;
9657;SDS011;4867;48.112;11.622;2023-09-18T15:24:29;2.90;;;2.10;;
9657;SDS011;4867;48.112;11.622;2023-09-18T15:26:57;1.87;;;1.60;;
9657;SDS011;4867;48.112;11.622;2023-09-18T15:29:24;3.33;;;1.60;;
9657;SDS011;4867;48.112;11.622;2023-09-18T15:32:01;4.53;;;1.73;;
9657;SDS011;4867;48.112;11.622;2023-09-18T15:34:32;3.93;;;1.60;;